Time;durP1;ratioP1;P1;durP2;ratioP2;P2;SDS_P1;SDS_P2;PMS_P1;PMS_P2;Temp;Humidity;BMP_temperature;BMP_pressure;BME280_temperature;BME280_humidity;BME280_pressure;Samples;Min_cycle;Max_cycle;Signal;HPM_P1;HPM_P2
2022/05/20 00:01:59;;;;;;;2.10;1.90;;;20.40;97.00;;;;;;7373549;19;20875;-71
2022/05/20 00:04:25;;;;;;;2.83;2.13;;;20.40;97.50;;;;;;7371688;19;20329;-72
2022/05/20 00:06:50;;;;;;;5.10;2.20;;;20.30;98.10;;;;;;7370197;19;21547;-71
2022/05/20 00:09:16;;;;;;;2.13;1.93;;;20.30;98.40;;;;;;7373503;19;20308;-72
2022/05/20 00:11:42;;;;;;;1.85;1.75;;;20.30;98.50;;;;;;7376405;19;20363;-71
2022/05/20 00:14:07;;;;;;;1.77;1.55;;;20.20;99.10;;;;;;7378194;19;20336;-71
2022/05/20 00:16:35;;;;;;;1.87;1.77;;;20.20;99.10;;;;;;7370197;19;20345;-71
2022/05/20 00:19:03;;;;;;;3.30;1.85;;;20.20;99.90;;;;;;7373956;19;20317;-72
2022/05/20 00:21:28;;;;;;;2.45;2.25;;;20.20;99.90;;;;;;7375696;19;20856;-71
2022/05/20 00:23:54;;;;;;;2.35;1.92;;;20.20;99.90;;;;;;7376252;19;20316;-71
2022/05/20 00:26:20;;;;;;;4.30;2.00;;;20.10;99.90;;;;;;7368541;19;20308;-71
2022/05/20 00:28:48;;;;;;;3.00;2.10;;;20.10;99.90;;;;;;7375957;19;20470;-71
2022/05/20 00:31:14;;;;;;;2.10;1.90;;;20.10;99.90;;;;;;7373538;19;20325;-71
2022/05/20 00:33:39;;;;;;;2.17;2.00;;;20.00;99.90;;;;;;7376752;19;20883;-71
2022/05/20 00:36:05;;;;;;;2.03;1.87;;;20.00;99.90;;;;;;7367282;19;20412;-71
2022/05/20 00:38:31;;;;;;;2.60;1.90;;;20.00;99.90;;;;;;7373584;19;22448;-71
2022/05/20 00:40:58;;;;;;;2.83;1.90;;;19.90;99.90;;;;;;7376222;19;20875;-71
2022/05/20 00:43:26;;;;;;;2.70;2.05;;;19.90;99.90;;;;;;7377229;19;20410;-71
2022/05/20 00:45:56;;;;;;;2.05;1.95;;;19.90;99.90;;;;;;7368468;19;20369;-71
2022/05/20 00:48:22;;;;;;;2.60;1.85;;;19.80;99.90;;;;;;7375255;19;20293;-72
2022/05/20 00:50:55;;;;;;;2.20;2.00;;;19.80;99.90;;;;;;7372969;19;20373;-71
2022/05/20 00:53:21;;;;;;;2.00;1.90;;;19.80;99.90;;;;;;7374642;19;20431;-71
2022/05/20 00:55:46;;;;;;;2.53;1.90;;;19.70;99.90;;;;;;7368826;19;21064;-71
2022/05/20 00:58:17;;;;;;;2.10;2.00;;;19.70;99.90;;;;;;7371413;19;20343;-71
2022/05/20 01:00:45;;;;;;;2.28;2.08;;;19.70;99.90;;;;;;7374394;19;20340;-71
2022/05/20 01:03:12;;;;;;;2.22;2.03;;;19.60;99.90;;;;;;7376688;19;20838;-71
2022/05/20 01:05:39;;;;;;;1.85;1.75;;;19.60;99.90;;;;;;7367524;19;20423;-71
2022/05/20 01:08:05;;;;;;;3.88;2.05;;;19.60;99.90;;;;;;7372626;19;20333;-71
2022/05/20 01:10:31;;;;;;;3.13;1.83;;;19.50;99.90;;;;;;7372881;19;20340;-71
2022/05/20 01:12:57;;;;;;;1.90;1.80;;;19.60;99.90;;;;;;7375289;19;20337;-71
2022/05/20 01:15:22;;;;;;;2.10;1.83;;;19.50;99.90;;;;;;7368952;19;20664;-71
2022/05/20 01:17:49;;;;;;;2.10;1.90;;;19.50;99.90;;;;;;7370681;19;20403;-71
2022/05/20 01:20:18;;;;;;;3.50;1.80;;;19.40;99.90;;;;;;7372744;19;20352;-71
2022/05/20 01:23:06;;;;;;;4.70;1.95;;;19.40;99.90;;;;;;7375704;19;20324;-72
2022/05/20 01:25:32;;;;;;;3.57;1.80;;;19.40;99.90;;;;;;7367998;19;20349;-71
2022/05/20 01:27:58;;;;;;;1.98;1.75;;;19.30;99.90;;;;;;7370392;19;20328;-71
2022/05/20 01:30:25;;;;;;;1.80;1.70;;;19.30;99.90;;;;;;7373476;19;20324;-71
2022/05/20 01:32:50;;;;;;;2.83;2.00;;;19.30;99.90;;;;;;7373461;19;20407;-71
2022/05/20 01:35:36;;;;;;;1.90;1.80;;;19.30;99.90;;;;;;7367405;19;20454;-72
2022/05/20 01:38:02;;;;;;;1.85;1.75;;;19.30;99.90;;;;;;7369610;19;20347;-71
2022/05/20 01:40:28;;;;;;;1.60;1.50;;;19.20;99.90;;;;;;7374223;19;20317;-71
2022/05/20 01:43:02;;;;;;;2.00;1.90;;;19.20;99.90;;;;;;7375530;19;20308;-71
2022/05/20 01:45:39;;;;;;;2.90;2.00;;;19.10;99.90;;;;;;7365700;19;20355;-71
2022/05/20 01:48:26;;;;;;;2.20;1.60;;;19.10;99.90;;;;;;7370121;19;20353;-72
2022/05/20 01:50:53;;;;;;;1.90;1.80;;;19.10;99.90;;;;;;7370358;19;20908;-71
2022/05/20 01:53:40;;;;;;;2.10;1.50;;;19.10;99.90;;;;;;7372510;19;20945;-71
2022/05/20 01:56:12;;;;;;;2.28;2.00;;;19.10;99.90;;;;;;7370109;19;20325;-71
2022/05/20 01:59:02;;;;;;;3.17;2.07;;;19.10;99.90;;;;;;7378280;19;20344;-71
2022/05/20 02:01:36;;;;;;;1.88;1.77;;;19.10;99.90;;;;;;7275862;19;2020027;-72
2022/05/20 02:04:09;;;;;;;1.70;1.60;;;19.10;99.90;;;;;;7278691;19;2004418;-72
2022/05/20 02:06:41;;;;;;;2.00;1.80;;;19.00;99.90;;;;;;7372822;19;20400;-71
2022/05/20 02:09:13;;;;;;;1.88;1.77;;;19.00;99.90;;;;;;7379547;19;20308;-71
2022/05/20 02:11:45;;;;;;;2.17;1.93;;;19.00;99.90;;;;;;7379049;19;20357;-71
2022/05/20 02:14:35;;;;;;;1.60;1.50;;;19.00;99.90;;;;;;7378180;19;20333;-71
2022/05/20 02:17:28;;;;;;;2.88;1.60;;;18.90;99.90;;;;;;7375668;19;20676;-71
2022/05/20 02:19:59;;;;;;;2.03;1.80;;;18.80;99.90;;;;;;7276438;19;2020014;-72
2022/05/20 02:22:27;;;;;;;1.88;1.77;;;18.70;99.90;;;;;;7381436;19;20312;-71
2022/05/20 02:24:52;;;;;;;3.88;1.77;;;18.80;99.90;;;;;;7373581;19;20960;-72
2022/05/20 02:27:20;;;;;;;2.03;1.83;;;18.70;99.90;;;;;;7374707;19;20416;-72
2022/05/20 02:29:53;;;;;;;1.83;1.73;;;18.70;99.90;;;;;;7379041;19;20332;-72
2022/05/20 02:32:34;;;;;;;1.90;1.70;;;18.70;99.90;;;;;;7377881;19;20320;-72
2022/05/20 02:35:00;;;;;;;2.00;1.90;;;18.70;99.90;;;;;;7272624;19;2004610;-72
2022/05/20 02:37:33;;;;;;;3.75;1.80;;;18.60;99.90;;;;;;7374372;19;20352;-71
2022/05/20 02:39:59;;;;;;;1.70;1.60;;;18.60;99.90;;;;;;7377385;19;20324;-72
2022/05/20 02:42:27;;;;;;;1.55;1.45;;;18.60;99.90;;;;;;7379728;19;20320;-72
2022/05/20 02:44:52;;;;;;;2.17;1.75;;;18.60;99.90;;;;;;7373686;19;20344;-72
2022/05/20 02:47:18;;;;;;;1.90;1.80;;;18.60;99.90;;;;;;7373312;19;20345;-72
2022/05/20 02:49:43;;;;;;;1.83;1.60;;;18.50;99.90;;;;;;7379202;19;20313;-72
2022/05/20 02:52:09;;;;;;;1.83;1.73;;;18.50;99.90;;;;;;7376493;19;20423;-72
2022/05/20 02:54:35;;;;;;;2.30;1.70;;;18.40;99.90;;;;;;7375560;19;20357;-72
2022/05/20 02:57:00;;;;;;;2.53;1.90;;;18.40;99.90;;;;;;7373010;19;20309;-72
2022/05/20 03:04:55;;;;;;;1.60;1.50;;;18.20;99.90;;;;;;7248022;19;2004358;-72
2022/05/20 03:07:20;;;;;;;2.00;1.80;;;18.10;99.90;;;;;;7369484;19;20349;-72
2022/05/20 03:09:46;;;;;;;2.03;1.90;;;18.10;99.90;;;;;;7373183;19;20399;-72
2022/05/20 03:12:13;;;;;;;1.70;1.60;;;18.00;99.90;;;;;;7373161;19;20316;-72
2022/05/20 03:14:38;;;;;;;1.90;1.80;;;18.00;99.90;;;;;;7372110;19;20360;-72
2022/05/20 03:17:04;;;;;;;1.60;1.50;;;17.90;99.90;;;;;;7372347;19;20864;-72
2022/05/20 03:19:30;;;;;;;1.40;1.30;;;17.90;99.90;;;;;;7375869;19;20328;-72
2022/05/20 03:21:57;;;;;;;1.58;1.48;;;17.90;99.90;;;;;;7376403;19;20343;-72
2022/05/20 03:24:23;;;;;;;1.67;1.58;;;17.90;99.90;;;;;;7375082;19;20324;-72
2022/05/20 03:26:49;;;;;;;1.70;1.60;;;17.90;99.90;;;;;;7372762;19;20356;-72
2022/05/20 03:29:14;;;;;;;1.90;1.80;;;17.80;99.90;;;;;;7378386;19;20316;-72
2022/05/20 03:31:40;;;;;;;2.00;1.80;;;17.80;99.90;;;;;;7377867;19;20322;-72
2022/05/20 03:34:06;;;;;;;1.70;1.60;;;17.70;99.90;;;;;;7377543;19;20341;-72
2022/05/20 03:36:40;;;;;;;1.90;1.80;;;17.70;99.90;;;;;;7371594;19;20345;-72
2022/05/20 03:39:06;;;;;;;3.15;1.95;;;17.70;99.90;;;;;;7274852;19;2005380;-72
2022/05/20 03:41:32;;;;;;;1.80;1.67;;;17.70;99.90;;;;;;7377306;19;20329;-72
2022/05/20 03:43:57;;;;;;;1.80;1.70;;;17.70;99.90;;;;;;7376234;19;20321;-72
2022/05/20 03:46:23;;;;;;;2.63;1.53;;;17.70;99.90;;;;;;7371052;19;20320;-72
2022/05/20 03:48:49;;;;;;;1.53;1.43;;;17.70;99.90;;;;;;7373618;19;20367;-72
2022/05/20 03:51:14;;;;;;;2.90;1.90;;;17.70;99.90;;;;;;7377514;19;20336;-72
2022/05/20 03:53:40;;;;;;;1.60;1.50;;;17.70;99.90;;;;;;7375463;19;20416;-71
2022/05/20 03:56:06;;;;;;;1.80;1.70;;;17.80;99.90;;;;;;7366791;19;20340;-72
2022/05/20 03:58:31;;;;;;;2.15;1.80;;;17.80;99.90;;;;;;7375931;19;20423;-71
2022/05/20 04:03:45;;;;;;;2.13;1.80;;;17.90;99.90;;;;;;7376440;19;20324;-72
2022/05/20 04:06:11;;;;;;;1.90;1.80;;;17.90;99.90;;;;;;7367389;19;20336;-72
2022/05/20 04:08:38;;;;;;;1.70;1.60;;;17.90;99.90;;;;;;7373412;19;20656;-72
2022/05/20 04:11:04;;;;;;;1.95;1.80;;;17.90;99.90;;;;;;7375720;19;20357;-72
2022/05/20 04:13:29;;;;;;;2.30;1.80;;;18.00;99.90;;;;;;7374450;19;20388;-72
2022/05/20 04:15:55;;;;;;;2.20;1.75;;;18.00;99.90;;;;;;7345249;19;20721;-72
2022/05/20 04:18:21;;;;;;;2.00;1.80;;;18.00;99.90;;;;;;7375088;19;20316;-72
2022/05/20 04:20:47;;;;;;;2.20;2.00;;;18.10;99.90;;;;;;7375559;19;20357;-72
2022/05/20 04:23:14;;;;;;;1.80;1.70;;;18.10;99.90;;;;;;7374443;19;20316;-72
2022/05/20 04:25:40;;;;;;;1.63;1.50;;;18.10;99.90;;;;;;7372563;19;20345;-72
2022/05/20 04:28:05;;;;;;;3.20;2.10;;;18.20;99.90;;;;;;7371602;19;20345;-73
2022/05/20 04:30:31;;;;;;;2.30;1.70;;;18.20;99.90;;;;;;7378165;19;20328;-72
2022/05/20 04:32:56;;;;;;;2.83;1.93;;;18.20;99.90;;;;;;7377513;19;20392;-73
2022/05/20 04:35:22;;;;;;;2.17;2.00;;;18.30;99.90;;;;;;7368427;19;20352;-72
2022/05/20 04:37:47;;;;;;;3.20;1.90;;;18.30;99.90;;;;;;7374599;19;20392;-73
2022/05/20 04:40:13;;;;;;;5.10;2.00;;;18.30;99.90;;;;;;7374705;19;20320;-73
2022/05/20 04:48:07;;;;;;;2.20;2.00;;;18.50;99.90;;;;;;7372366;19;20378;-73
2022/05/20 04:50:32;;;;;;;2.47;1.90;;;18.60;99.90;;;;;;7374885;19;20352;-73
2022/05/20 04:52:58;;;;;;;2.63;2.10;;;18.60;99.90;;;;;;7372801;19;20384;-73
2022/05/20 04:55:24;;;;;;;1.90;1.80;;;18.70;99.90;;;;;;7369144;19;20340;-72
2022/05/20 04:57:50;;;;;;;2.63;2.10;;;18.70;99.90;;;;;;7371305;19;20334;-73
2022/05/20 05:00:23;;;;;;;1.90;1.80;;;18.70;99.90;;;;;;7373671;19;20346;-72
2022/05/20 05:02:49;;;;;;;2.20;2.00;;;18.80;99.90;;;;;;7374857;19;20337;-72
2022/05/20 05:05:17;;;;;;;2.23;2.03;;;18.90;99.90;;;;;;7366861;19;20365;-72
2022/05/20 05:07:44;;;;;;;4.13;2.20;;;18.90;99.90;;;;;;7372312;19;20345;-72
2022/05/20 05:10:11;;;;;;;2.30;2.10;;;18.90;99.90;;;;;;7370686;19;20344;-72
2022/05/20 05:12:36;;;;;;;2.53;2.10;;;18.90;99.90;;;;;;7373838;19;20336;-72
2022/05/20 05:15:02;;;;;;;2.30;2.10;;;19.00;99.90;;;;;;7370399;19;20372;-72
2022/05/20 05:20:20;;;;;;;2.25;2.10;;;19.10;99.90;;;;;;7374239;19;20360;-73
2022/05/20 05:22:47;;;;;;;2.85;2.58;;;19.20;99.90;;;;;;7372735;19;20803;-72
2022/05/20 05:25:13;;;;;;;2.60;2.40;;;19.10;99.90;;;;;;7359409;19;20866;-72
2022/05/20 05:27:39;;;;;;;3.83;2.53;;;19.20;99.90;;;;;;7370087;19;20312;-72
2022/05/20 05:30:05;;;;;;;2.87;2.40;;;19.10;99.90;;;;;;7351296;19;21101;-72
2022/05/20 05:32:31;;;;;;;2.42;2.22;;;19.10;99.90;;;;;;7381539;19;20309;-72
2022/05/20 05:34:56;;;;;;;2.58;2.38;;;19.20;99.90;;;;;;7378063;19;20391;-71
2022/05/20 05:37:22;;;;;;;3.05;2.75;;;19.20;99.90;;;;;;7378504;19;20420;-72
2022/05/20 05:39:48;;;;;;;2.50;2.20;;;19.20;99.90;;;;;;7379398;19;20854;-72
2022/05/20 05:42:13;;;;;;;2.67;2.35;;;19.30;99.90;;;;;;7375525;19;20850;-72
2022/05/20 05:44:39;;;;;;;4.10;2.50;;;19.40;99.90;;;;;;7371932;19;20388;-73
2022/05/20 05:47:05;;;;;;;2.60;2.40;;;19.40;99.90;;;;;;7376544;19;21736;-72
2022/05/20 05:49:31;;;;;;;2.60;2.40;;;19.50;99.90;;;;;;7374790;19;20854;-72
2022/05/20 05:51:57;;;;;;;2.50;2.30;;;19.30;99.90;;;;;;7375733;19;20423;-72
2022/05/20 05:54:22;;;;;;;2.60;2.40;;;19.30;99.90;;;;;;7374194;19;20339;-72
2022/05/20 05:56:49;;;;;;;3.88;2.42;;;19.40;99.90;;;;;;7377661;19;20395;-72
2022/05/20 05:59:14;;;;;;;3.65;2.75;;;19.20;99.90;;;;;;7381233;19;20325;-71
2022/05/20 06:01:40;;;;;;;3.20;2.90;;;19.20;99.90;;;;;;7378550;19;20356;-72
2022/05/20 06:04:05;;;;;;;3.37;2.83;;;19.10;99.90;;;;;;7380375;19;20327;-72
2022/05/20 06:06:31;;;;;;;3.70;3.40;;;19.00;99.90;;;;;;7375732;19;20336;-72
2022/05/20 06:08:56;;;;;;;3.47;2.60;;;19.10;99.90;;;;;;7376868;19;20320;-71
2022/05/20 06:11:22;;;;;;;4.07;3.07;;;19.10;99.90;;;;;;7382012;19;20978;-71
2022/05/20 06:13:48;;;;;;;3.53;3.22;;;19.10;99.90;;;;;;7382691;19;20356;-72
2022/05/20 06:16:18;;;;;;;3.38;3.08;;;19.20;99.90;;;;;;7377347;19;20341;-72
2022/05/20 06:18:43;;;;;;;4.10;2.90;;;19.30;99.90;;;;;;7381426;19;20339;-72
2022/05/20 06:21:09;;;;;;;3.20;2.83;;;19.30;99.90;;;;;;7375521;19;20352;-72
2022/05/20 06:23:34;;;;;;;3.60;3.30;;;19.30;99.90;;;;;;7379682;19;20380;-72
2022/05/20 06:26:00;;;;;;;3.33;3.03;;;19.40;99.90;;;;;;7375706;19;20343;-73
2022/05/20 06:28:26;;;;;;;4.63;3.17;;;19.20;99.90;;;;;;7379797;19;20355;-72
2022/05/20 06:30:51;;;;;;;3.70;3.30;;;19.20;99.90;;;;;;7378389;19;20330;-72
2022/05/20 06:33:17;;;;;;;2.80;2.60;;;19.20;99.90;;;;;;7380352;19;20831;-71
2022/05/20 06:41:11;;;;;;;5.20;3.60;;;19.50;99.90;;;;;;7379639;19;20864;-71
2022/05/20 06:43:37;;;;;;;3.53;3.23;;;19.60;99.90;;;;;;7379121;19;20332;-71
2022/05/20 06:46:03;;;;;;;3.58;3.30;;;19.70;99.90;;;;;;7372637;19;20308;-72
2022/05/20 06:48:46;;;;;;;3.90;3.50;;;19.70;99.90;;;;;;7378434;19;20627;-72
2022/05/20 06:51:13;;;;;;;4.90;3.60;;;19.30;99.90;;;;;;7378267;19;20679;-72
2022/05/20 06:53:39;;;;;;;3.90;3.50;;;19.40;99.90;;;;;;7378611;19;20353;-72
2022/05/20 06:56:05;;;;;;;3.67;3.33;;;19.50;99.90;;;;;;7375229;19;20352;-72
2022/05/20 06:58:31;;;;;;;3.80;3.50;;;19.60;99.90;;;;;;7379132;19;20341;-72
2022/05/20 07:00:57;;;;;;;3.72;3.42;;;19.60;99.90;;;;;;7377636;19;20324;-72
2022/05/20 07:03:23;;;;;;;3.90;3.50;;;19.80;99.90;;;;;;7382141;19;20341;-72
2022/05/20 07:05:49;;;;;;;3.80;3.43;;;19.80;99.90;;;;;;7370847;19;21230;-72
2022/05/20 07:08:15;;;;;;;3.20;2.90;;;20.10;99.90;;;;;;7378525;19;20432;-72
2022/05/20 07:10:41;;;;;;;3.50;3.20;;;20.20;99.90;;;;;;7380449;19;20364;-71
2022/05/20 07:13:06;;;;;;;3.83;3.53;;;20.30;99.90;;;;;;7378774;19;20336;-72
2022/05/20 07:15:32;;;;;;;3.55;3.25;;;20.50;99.90;;;;;;7373249;19;20420;-72
2022/05/20 07:17:58;;;;;;;3.40;3.10;;;20.50;99.90;;;;;;7377259;19;20364;-72
2022/05/20 07:20:23;;;;;;;3.10;2.80;;;20.80;99.90;;;;;;7380422;19;20320;-71
2022/05/20 07:22:49;;;;;;;3.55;3.25;;;21.00;99.90;;;;;;7380154;19;20842;-72
2022/05/20 07:25:14;;;;;;;5.40;3.55;;;21.10;99.90;;;;;;7371596;19;20873;-72
2022/05/20 07:27:40;;;;;;;3.73;3.40;;;21.10;99.90;;;;;;7375505;19;20359;-72
2022/05/20 07:30:06;;;;;;;4.03;3.30;;;21.10;99.90;;;;;;7376924;19;20312;-72
2022/05/20 07:32:32;;;;;;;3.80;3.50;;;21.20;99.90;;;;;;7378658;19;20343;-72
2022/05/20 07:34:57;;;;;;;3.63;3.28;;;21.00;99.90;;;;;;7376304;19;20918;-72
2022/05/20 07:37:23;;;;;;;3.35;3.10;;;21.10;99.90;;;;;;7373949;19;20335;-72
2022/05/20 07:39:48;;;;;;;4.10;3.40;;;21.30;99.90;;;;;;7378291;19;20553;-72
2022/05/20 07:42:14;;;;;;;3.90;3.30;;;21.40;99.90;;;;;;7380011;19;20325;-72
2022/05/20 07:44:41;;;;;;;4.10;3.60;;;21.40;99.90;;;;;;7374216;19;20348;-72
2022/05/20 07:47:07;;;;;;;3.95;3.60;;;21.30;99.90;;;;;;7372459;19;20361;-72
2022/05/20 07:49:32;;;;;;;3.72;3.42;;;21.40;99.90;;;;;;7377030;19;21296;-73
2022/05/20 07:52:01;;;;;;;4.60;3.90;;;21.60;99.90;;;;;;7376491;19;20373;-72
2022/05/20 07:54:27;;;;;;;4.15;3.83;;;21.80;99.90;;;;;;7373017;19;20340;-73
2022/05/20 07:56:57;;;;;;;4.23;3.83;;;21.80;99.90;;;;;;7373145;19;20664;-73
2022/05/20 07:59:30;;;;;;;4.20;3.80;;;21.50;99.90;;;;;;7376112;19;20321;-73
2022/05/20 08:01:56;;;;;;;5.47;4.43;;;21.80;99.90;;;;;;7377652;19;20348;-72
2022/05/20 08:07:08;;;;;;;4.78;4.10;;;22.20;99.90;;;;;;7374270;19;20958;-73
2022/05/20 08:09:33;;;;;;;4.15;3.75;;;22.10;99.90;;;;;;7375881;19;20432;-73
2022/05/20 08:12:00;;;;;;;4.20;3.80;;;22.40;99.90;;;;;;7379365;19;20341;-73
2022/05/20 08:14:26;;;;;;;4.75;3.70;;;22.50;99.90;;;;;;7374405;19;20340;-73
2022/05/20 08:16:52;;;;;;;4.03;3.65;;;22.70;99.90;;;;;;7371036;19;20357;-73
2022/05/20 08:19:18;;;;;;;5.30;4.03;;;22.90;99.90;;;;;;7376683;19;20400;-73
2022/05/20 08:21:43;;;;;;;5.45;3.92;;;23.00;99.90;;;;;;7378401;19;20328;-73
2022/05/20 08:24:09;;;;;;;3.85;3.50;;;23.20;99.90;;;;;;7377678;19;20402;-73
2022/05/20 08:26:35;;;;;;;5.30;3.90;;;23.30;99.90;;;;;;7369000;19;20441;-73
2022/05/20 08:29:00;;;;;;;4.33;3.93;;;23.50;99.90;;;;;;7373944;19;20332;-73
2022/05/20 08:31:26;;;;;;;5.35;3.92;;;23.70;99.90;;;;;;7375620;19;20341;-73
2022/05/20 08:33:52;;;;;;;4.32;3.90;;;24.00;99.90;;;;;;7375437;19;20329;-73
2022/05/20 08:36:18;;;;;;;4.93;3.70;;;23.70;99.90;;;;;;7369399;19;20309;-73
2022/05/20 08:38:44;;;;;;;4.13;3.70;;;23.90;99.90;;;;;;7374714;19;20593;-73
2022/05/20 08:41:17;;;;;;;3.95;3.55;;;23.80;99.90;;;;;;7374485;19;20361;-74
2022/05/20 08:43:42;;;;;;;4.03;3.63;;;24.00;99.90;;;;;;7376387;19;20676;-74
2022/05/20 08:46:08;;;;;;;4.28;3.90;;;24.00;99.90;;;;;;7368056;19;20340;-73
2022/05/20 08:48:34;;;;;;;3.90;3.50;;;24.10;99.90;;;;;;7373123;19;20341;-74
2022/05/20 08:51:01;;;;;;;3.67;3.23;;;24.20;99.90;;;;;;7374433;19;20334;-74
2022/05/20 08:53:34;;;;;;;3.22;2.92;;;24.30;99.90;;;;;;7374278;19;20842;-74
2022/05/20 08:56:04;;;;;;;3.45;3.05;;;24.70;99.90;;;;;;7369243;19;20365;-73
2022/05/20 08:58:30;;;;;;;3.40;3.10;;;24.80;99.90;;;;;;7373640;19;20380;-73
2022/05/20 09:00:55;;;;;;;3.88;3.47;;;24.90;99.90;;;;;;7376019;19;20412;-74
2022/05/20 09:03:22;;;;;;;3.10;2.80;;;24.90;99.90;;;;;;7374772;19;20320;-74
2022/05/20 09:05:47;;;;;;;4.20;3.30;;;25.10;99.90;;;;;;7369284;19;20332;-73
2022/05/20 09:08:16;;;;;;;3.10;2.80;;;24.40;99.90;;;;;;7360125;19;20373;-73
2022/05/20 09:10:47;;;;;;;2.70;2.50;;;24.30;99.90;;;;;;7382782;19;21041;-73
2022/05/20 09:13:18;;;;;;;3.60;3.30;;;24.50;99.90;;;;;;7380672;19;20387;-73
2022/05/20 09:15:44;;;;;;;2.50;2.30;;;24.50;99.90;;;;;;7376209;19;20348;-73
2022/05/20 09:18:34;;;;;;;3.10;2.80;;;25.10;99.90;;;;;;7379397;19;20324;-74
2022/05/20 09:21:00;;;;;;;4.25;2.55;;;25.10;99.90;;;;;;7278478;19;2015498;-73
2022/05/20 09:23:25;;;;;;;2.70;2.50;;;25.50;99.90;;;;;;7384316;19;20338;-74
2022/05/20 09:26:06;;;;;;;3.42;2.80;;;25.80;99.90;;;;;;7375457;19;20356;-73
2022/05/20 09:28:36;;;;;;;2.60;2.40;;;25.50;99.90;;;;;;7380701;19;20352;-73
2022/05/20 09:31:16;;;;;;;2.45;2.30;;;25.70;99.90;;;;;;7380910;19;20320;-74
2022/05/20 09:34:03;;;;;;;3.33;2.75;;;25.60;99.90;;;;;;7381612;19;20328;-73
2022/05/20 09:36:55;;;;;;;2.10;2.00;;;25.40;99.90;;;;;;7375769;19;20469;-73
2022/05/20 09:39:32;;;;;;;2.40;2.20;;;25.60;99.90;;;;;;7278820;19;2004263;-74
2022/05/20 09:42:04;;;;;;;2.40;2.20;;;26.30;99.90;;;;;;7381429;19;20321;-74
2022/05/20 09:44:36;;;;;;;2.30;2.10;;;26.70;99.90;;;;;;7378442;19;20758;-74
2022/05/20 09:47:18;;;;;;;2.45;2.25;;;26.70;99.90;;;;;;7379661;19;20343;-73
2022/05/20 09:49:52;;;;;;;3.05;2.70;;;26.90;99.90;;;;;;7277492;19;2004824;-74
2022/05/20 09:52:33;;;;;;;2.40;2.20;;;26.20;99.90;;;;;;7380340;19;20304;-73
2022/05/20 09:55:12;;;;;;;3.13;2.08;;;26.20;99.90;;;;;;7274861;19;2010139;-74
2022/05/20 09:57:43;;;;;;;2.45;2.25;;;26.60;99.90;;;;;;7276478;19;2004775;-74
2022/05/20 10:00:26;;;;;;;2.70;2.28;;;26.60;99.90;;;;;;7380507;19;20421;-74
2022/05/20 10:03:06;;;;;;;2.75;2.08;;;26.80;99.90;;;;;;7280526;19;2004430;-74
2022/05/20 10:05:52;;;;;;;2.45;2.25;;;26.90;99.90;;;;;;7272766;19;2018631;-74
2022/05/20 10:08:30;;;;;;;2.03;1.83;;;26.70;99.90;;;;;;7276251;19;2004322;-74
2022/05/20 10:11:24;;;;;;;2.00;1.90;;;27.00;99.90;;;;;;7380146;19;20434;-74
2022/05/20 10:14:02;;;;;;;2.13;1.98;;;27.00;99.90;;;;;;7380704;19;20347;-74
2022/05/20 10:16:49;;;;;;;3.55;2.45;;;27.10;99.90;;;;;;7270184;19;2018943;-74
2022/05/20 10:19:59;;;;;;;2.20;2.10;;;26.50;99.90;;;;;;7277224;19;2018678;-73
2022/05/20 10:22:26;;;;;;;2.30;2.10;;;26.40;99.90;;;;;;7277864;19;2004605;-74
2022/05/20 10:25:26;;;;;;;4.20;2.10;;;26.70;99.90;;;;;;7377374;19;20324;-74
2022/05/20 10:28:05;;;;;;;2.50;2.30;;;26.90;99.90;;;;;;7274976;19;2004422;-73
2022/05/20 10:33:24;;;;;;;2.25;2.15;;;27.00;99.90;;;;;;7278935;19;2004533;-74
2022/05/20 10:36:05;;;;;;;3.53;2.13;;;27.50;99.90;;;;;;7372785;19;22876;-74
2022/05/20 10:38:58;;;;;;;3.40;2.17;;;27.70;99.90;;;;;;7277076;19;2005478;-74
2022/05/20 10:41:32;;;;;;;3.47;2.08;;;28.30;99.90;;;;;;7277289;19;2004326;-74
2022/05/20 10:50:08;;;;;;;2.13;1.95;;;27.10;99.70;;;;;;7377891;19;20309;-74
2022/05/20 10:52:51;;;;;;;4.82;2.28;;;27.40;99.90;;;;;;7377840;19;20893;-74
2022/05/20 10:55:25;;;;;;;3.67;1.90;;;27.40;99.90;;;;;;7373340;19;20688;-74
2022/05/20 10:58:09;;;;;;;3.50;1.92;;;27.40;99.90;;;;;;7374800;19;20349;-74
2022/05/20 11:00:47;;;;;;;1.65;1.55;;;27.30;99.90;;;;;;7277845;19;2004404;-74
2022/05/20 11:03:38;;;;;;;1.90;1.80;;;27.60;99.90;;;;;;7279521;19;2004318;-74
2022/05/20 11:06:11;;;;;;;2.17;1.98;;;27.60;99.90;;;;;;7268341;19;2004144;-74
2022/05/20 11:09:21;;;;;;;1.77;1.67;;;28.30;99.90;;;;;;7376519;19;20365;-74
2022/05/20 11:11:55;;;;;;;3.63;1.67;;;28.50;99.00;;;;;;7277495;19;2004299;-74
2022/05/20 11:14:51;;;;;;;1.88;1.77;;;28.50;99.90;;;;;;7376802;19;20360;-74
2022/05/20 11:17:32;;;;;;;1.80;1.70;;;28.60;96.70;;;;;;7249576;19;2004359;-74
2022/05/20 11:20:25;;;;;;;2.25;2.05;;;28.80;97.70;;;;;;7375696;19;20316;-74
2022/05/20 11:23:01;;;;;;;3.50;2.10;;;28.90;95.70;;;;;;7277794;19;2004622;-74
2022/05/20 11:25:33;;;;;;;1.80;1.70;;;29.10;97.10;;;;;;7371876;19;20402;-74
2022/05/20 11:28:17;;;;;;;2.90;1.90;;;29.90;96.80;;;;;;7373445;19;20324;-75
2022/05/20 11:31:02;;;;;;;1.80;1.70;;;29.30;95.80;;;;;;7274520;19;2004317;-74
2022/05/20 11:34:00;;;;;;;3.22;1.85;;;30.00;95.20;;;;;;7378605;19;21002;-74
2022/05/20 11:36:52;;;;;;;2.17;1.95;;;30.40;94.30;;;;;;7267249;19;2004571;-75
2022/05/20 11:39:36;;;;;;;2.42;1.85;;;29.60;93.90;;;;;;7377180;19;21053;-74
2022/05/20 11:42:44;;;;;;;2.65;2.15;;;29.40;93.20;;;;;;7379514;19;20530;-74
2022/05/20 11:45:16;;;;;;;2.03;1.83;;;28.60;92.30;;;;;;7268490;19;2019792;-75
2022/05/20 11:47:58;;;;;;;2.13;1.92;;;30.00;93.60;;;;;;7374736;19;20884;-75
2022/05/20 11:50:41;;;;;;;2.05;1.95;;;30.70;93.00;;;;;;7377151;19;20351;-74
2022/05/20 11:53:48;;;;;;;1.95;1.85;;;31.00;92.60;;;;;;7275500;19;2019859;-74
2022/05/20 11:56:38;;;;;;;1.83;1.73;;;30.70;92.00;;;;;;7164930;19;2004803;-75
2022/05/20 11:59:16;;;;;;;1.88;1.77;;;31.20;91.90;;;;;;7272584;19;2004893;-74
2022/05/20 12:01:43;;;;;;;2.28;2.03;;;31.30;92.10;;;;;;7376601;19;20340;-75
2022/05/20 12:04:08;;;;;;;2.25;2.00;;;31.10;89.70;;;;;;7379020;19;20321;-75
2022/05/20 12:06:49;;;;;;;2.00;1.80;;;31.80;91.60;;;;;;7369728;19;20361;-75
2022/05/20 12:09:31;;;;;;;3.75;2.08;;;32.60;88.00;;;;;;7375741;19;20659;-75
2022/05/20 12:12:16;;;;;;;1.70;1.60;;;32.60;88.30;;;;;;7378380;19;20361;-75
2022/05/20 12:15:07;;;;;;;2.00;1.90;;;32.50;83.20;;;;;;7269943;19;2004581;-74
2022/05/20 12:17:39;;;;;;;2.00;1.90;;;32.90;84.40;;;;;;7269510;19;2026720;-74
2022/05/20 12:26:23;;;;;;;2.75;2.55;;;33.00;83.00;;;;;;7267827;19;2004455;-74
2022/05/20 12:28:49;;;;;;;2.00;1.90;;;33.10;81.80;;;;;;7273485;19;2004486;-74
2022/05/20 12:31:15;;;;;;;1.90;1.80;;;33.20;79.10;;;;;;7375588;19;21314;-74
2022/05/20 12:34:05;;;;;;;1.90;1.80;;;33.50;75.60;;;;;;7376857;19;20329;-74
2022/05/20 12:36:31;;;;;;;1.83;1.73;;;33.40;76.70;;;;;;7371349;19;20365;-75
2022/05/20 12:39:09;;;;;;;2.85;1.88;;;33.40;73.90;;;;;;7376850;19;20328;-74
2022/05/20 12:41:34;;;;;;;2.58;1.80;;;33.80;72.80;;;;;;7374887;19;20358;-75
2022/05/20 12:44:22;;;;;;;2.23;1.80;;;33.40;68.90;;;;;;7377489;19;20345;-73
2022/05/20 12:47:19;;;;;;;2.20;2.00;;;33.20;71.10;;;;;;7271378;19;2004554;-75
2022/05/20 12:49:47;;;;;;;2.00;1.90;;;31.00;68.90;;;;;;7375782;19;20312;-74
2022/05/20 12:52:21;;;;;;;2.85;2.08;;;31.90;72.10;;;;;;7374736;19;20722;-75
2022/05/20 12:54:52;;;;;;;1.87;1.77;;;32.00;72.90;;;;;;7373961;19;20345;-75
2022/05/20 12:57:31;;;;;;;2.05;1.95;;;32.50;75.60;;;;;;7372070;19;20372;-74
2022/05/20 13:00:04;;;;;;;2.22;2.13;;;32.60;76.70;;;;;;7272333;19;2017224;-74
2022/05/20 13:02:40;;;;;;;2.08;1.98;;;32.30;72.90;;;;;;7375134;19;20685;-75
2022/05/20 13:05:26;;;;;;;3.58;3.15;;;32.60;71.60;;;;;;7266540;19;2012631;-75
2022/05/20 13:07:53;;;;;;;2.13;2.00;;;33.20;75.10;;;;;;7270710;19;2005097;-75
2022/05/20 13:10:33;;;;;;;1.80;1.70;;;33.50;70.30;;;;;;7374761;19;20312;-75
2022/05/20 13:13:05;;;;;;;2.00;1.90;;;33.10;68.70;;;;;;7274218;19;2004521;-75
2022/05/20 13:15:30;;;;;;;2.60;2.10;;;33.60;71.10;;;;;;7369809;19;20549;-75
2022/05/20 13:18:04;;;;;;;2.70;2.30;;;33.90;71.00;;;;;;7372770;19;20733;-74
2022/05/20 13:20:31;;;;;;;2.40;2.20;;;32.60;66.80;;;;;;7372567;19;20397;-75
2022/05/20 13:23:01;;;;;;;2.10;2.00;;;33.50;69.80;;;;;;7376822;19;20320;-75
2022/05/20 13:25:27;;;;;;;22.30;4.73;;;34.00;70.50;;;;;;7371796;19;20316;-75
2022/05/20 13:27:53;;;;;;;2.42;2.22;;;34.10;70.70;;;;;;7373709;19;21404;-75
2022/05/20 13:30:21;;;;;;;2.00;1.90;;;34.10;70.70;;;;;;7373044;19;20329;-75
2022/05/20 13:32:47;;;;;;;2.43;2.23;;;34.80;71.00;;;;;;7377147;19;20336;-75
2022/05/20 13:35:12;;;;;;;2.50;2.30;;;35.00;67.80;;;;;;7369673;19;21158;-74
2022/05/20 13:37:40;;;;;;;2.90;2.70;;;34.10;67.70;;;;;;7372576;19;20321;-75
2022/05/20 13:40:13;;;;;;;4.20;2.58;;;33.50;72.00;;;;;;7373151;19;20327;-75
2022/05/20 13:42:38;;;;;;;2.70;2.50;;;33.80;72.00;;;;;;7367769;19;20355;-74